Time,TemperatureF,DewpointF,PressureIn,WindDirection,WindDirectionDegrees,WindSpeedMPH,WindSpeedGustMPH,Humidity,HourlyPrecipIn,Conditions,Clouds,dailyrainin,SoftwareType,DateUTC
2013-09-06 00:14:00,53.0,46.0,30.12,NE,44,0.0,1.0,77,0.00,,,0.02,,2013-09-06 04:14:00,
2013-09-06 00:23:00,53.0,47.0,30.12,ENE,73,0.0,1.0,81,0.00,,,0.02,,2013-09-06 04:23:00,
2013-09-06 00:54:00,51.0,46.0,30.13,ENE,78,0.0,2.0,82,0.00,,,0.02,,2013-09-06 04:54:00,
2013-09-06 01:12:00,51.0,45.0,30.14,NNW,346,0.0,3.0,80,0.00,,,0.02,,2013-09-06 05:12:00,
2013-09-06 01:23:00,51.0,45.0,30.14,West,281,0.0,3.0,79,0.00,,,0.02,,2013-09-06 05:23:00,
2013-09-06 01:42:00,51.0,46.0,30.14,East,98,0.0,4.0,82,0.00,,,0.02,,2013-09-06 05:42:00,
2013-09-06 01:52:00,50.0,45.0,30.14,NE,45,0.0,2.0,82,0.00,,,0.02,,2013-09-06 05:52:00,
2013-09-06 02:12:00,50.0,44.0,30.14,NNE,32,0.0,3.0,80,0.00,,,0.02,,2013-09-06 06:12:00,
2013-09-06 02:22:00,49.0,43.0,30.14,North,355,0.0,3.0,81,0.00,,,0.02,,2013-09-06 06:22:00,
2013-09-06 02:42:00,49.0,44.0,30.15,NNE,19,0.0,3.0,83,0.00,,,0.02,,2013-09-06 06:42:00,
2013-09-06 02:53:00,49.0,44.0,30.15,North,11,0.0,1.0,82,0.00,,,0.02,,2013-09-06 06:53:00,
2013-09-06 03:12:00,48.0,43.0,30.16,East,101,0.0,1.0,82,0.00,,,0.02,,2013-09-06 07:12:00,
2013-09-06 03:23:00,48.0,43.0,30.16,West,278,0.0,2.0,83,0.00,,,0.02,,2013-09-06 07:23:00,
2013-09-06 03:42:00,48.0,43.0,30.16,West,278,0.0,1.0,84,0.00,,,0.02,,2013-09-06 07:42:00,
2013-09-06 03:52:00,47.0,43.0,30.16,North,355,0.0,1.0,85,0.00,,,0.02,,2013-09-06 07:52:00,
2013-09-06 04:12:00,47.0,43.0,30.16,WNW,297,0.0,2.0,86,0.00,,,0.02,,2013-09-06 08:12:00,
2013-09-06 04:22:00,47.0,43.0,30.17,NW,319,0.0,4.0,85,0.00,,,0.02,,2013-09-06 08:22:00,
2013-09-06 04:42:00,47.0,43.0,30.17,West,278,0.0,2.0,87,0.00,,,0.02,,2013-09-06 08:42:00,
2013-09-06 04:52:00,47.0,43.0,30.18,NW,311,0.0,2.0,86,0.00,,,0.02,,2013-09-06 08:52:00,
2013-09-06 05:11:00,48.0,42.0,30.18,NE,40,0.0,3.0,81,0.00,,,0.02,,2013-09-06 09:11:00,
2013-09-06 05:22:00,48.0,42.0,30.18,NE,56,0.0,3.0,80,0.00,,,0.02,,2013-09-06 09:22:00,
2013-09-06 05:53:00,47.0,41.0,30.18,WSW,242,0.0,5.0,81,0.00,,,0.02,,2013-09-06 09:53:00,
2013-09-06 06:13:00,47.0,41.0,30.19,WSW,246,0.0,2.0,79,0.00,,,0.02,,2013-09-06 10:13:00,
2013-09-06 06:23:00,47.0,41.0,30.19,NW,311,0.0,3.0,80,0.00,,,0.02,,2013-09-06 10:23:00,
2013-09-06 06:43:00,47.0,41.0,30.20,ENE,69,0.0,2.0,79,0.00,,,0.02,,2013-09-06 10:43:00,
2013-09-06 06:53:00,47.0,41.0,30.20,NNE,24,0.0,3.0,80,0.00,,,0.02,,2013-09-06 10:53:00,
2013-09-06 07:12:00,47.0,41.0,30.21,ENE,73,0.0,1.0,79,0.00,,,0.02,,2013-09-06 11:12:00,
2013-09-06 07:22:00,47.0,41.0,30.21,East,94,0.0,2.0,79,0.00,,,0.02,,2013-09-06 11:22:00,
2013-09-06 07:42:00,47.0,41.0,30.21,NNW,335,0.0,2.0,80,0.00,,,0.02,,2013-09-06 11:42:00,
2013-09-06 07:52:00,47.0,42.0,30.21,SW,229,1.0,3.0,83,0.00,,,0.02,,2013-09-06 11:52:00,
2013-09-06 08:12:00,47.0,43.0,30.21,West,262,0.0,2.0,85,0.00,,,0.02,,2013-09-06 12:12:00,
2013-09-06 08:22:00,47.0,43.0,30.22,West,262,0.0,2.0,85,0.00,,,0.02,,2013-09-06 12:22:00,
2013-09-06 08:42:00,47.0,43.0,30.22,West,262,0.0,1.0,85,0.00,,,0.02,,2013-09-06 12:42:00,
2013-09-06 08:52:00,48.0,43.0,30.22,WNW,302,0.0,2.0,82,0.00,,,0.02,,2013-09-06 12:52:00,
2013-09-06 09:11:00,50.0,44.0,30.22,West,259,0.0,2.0,79,0.00,,,0.02,,2013-09-06 13:11:00,
2013-09-06 09:22:00,51.0,44.0,30.23,West,259,0.0,3.0,77,0.00,,,0.02,,2013-09-06 13:22:00,
2013-09-06 09:42:00,53.0,45.0,30.23,NNW,344,0.0,3.0,73,0.00,,,0.01,,2013-09-06 13:42:00,
2013-09-06 09:52:00,54.0,45.0,30.24,SW,236,0.0,3.0,72,0.00,,,0.01,,2013-09-06 13:52:00,
2013-09-06 10:11:00,56.0,44.0,30.23,ENE,61,1.0,4.0,65,0.00,,,0.01,,2013-09-06 14:11:00,
2013-09-06 10:22:00,58.0,47.0,30.23,WSW,246,0.0,3.0,66,0.00,,,0.01,,2013-09-06 14:22:00,
2013-09-06 10:52:00,58.0,42.0,30.23,WNW,300,1.0,5.0,56,0.00,,,0.00,,2013-09-06 14:52:00,
2013-09-06 11:11:00,60.0,45.0,30.23,NW,311,0.0,3.0,57,0.00,,,0.00,,2013-09-06 15:11:00,
2013-09-06 11:22:00,60.0,41.0,30.23,East,90,0.0,3.0,50,0.00,,,0.00,,2013-09-06 15:22:00,
2013-09-06 11:53:00,61.0,42.0,30.23,SW,217,1.0,5.0,50,0.00,,,0.00,,2013-09-06 15:53:00,
2013-09-06 12:13:00,61.0,46.0,30.23,NNW,341,0.0,4.0,57,0.00,,,0.00,,2013-09-06 16:13:00,
2013-09-06 12:24:00,61.0,42.0,30.22,WNW,286,0.0,3.0,50,0.00,,,0.00,,2013-09-06 16:24:00,
2013-09-06 12:43:00,62.0,45.0,30.22,North,360,0.0,3.0,54,0.00,,,0.00,,2013-09-06 16:43:00,
2013-09-06 12:53:00,63.0,44.0,30.21,WNW,296,0.0,3.0,49,0.00,,,0.00,,2013-09-06 16:53:00,
2013-09-06 13:13:00,62.0,45.0,30.21,North,351,0.0,3.0,53,0.00,,,0.00,,2013-09-06 17:13:00,
2013-09-06 13:24:00,62.0,44.0,30.21,West,279,0.0,3.0,51,0.00,,,0.00,,2013-09-06 17:24:00,
2013-09-06 13:43:00,62.0,47.0,30.21,North,360,0.0,2.0,57,0.00,,,0.00,,2013-09-06 17:43:00,
2013-09-06 13:53:00,61.0,45.0,30.21,West,277,0.0,2.0,55,0.00,,,0.00,,2013-09-06 17:53:00,
2013-09-06 14:12:00,61.0,47.0,30.20,West,277,0.0,0.0,59,0.00,,,0.00,,2013-09-06 18:12:00,
2013-09-06 14:22:00,60.0,44.0,30.20,West,263,1.0,4.0,55,0.00,,,0.00,,2013-09-06 18:22:00,
2013-09-06 14:42:00,61.0,47.0,30.20,West,279,0.0,3.0,59,0.00,,,0.00,,2013-09-06 18:42:00,
2013-09-06 14:52:00,60.0,45.0,30.19,WNW,288,0.0,3.0,58,0.00,,,0.00,,2013-09-06 18:52:00,
2013-09-06 15:12:00,60.0,46.0,30.19,West,261,0.0,3.0,60,0.00,,,0.00,,2013-09-06 19:12:00,
2013-09-06 15:22:00,61.0,45.0,30.18,NW,304,1.0,6.0,56,0.00,,,0.00,,2013-09-06 19:22:00,
2013-09-06 15:43:00,60.0,46.0,30.18,WNW,301,0.0,3.0,59,0.00,,,0.00,,2013-09-06 19:43:00,
2013-09-06 15:52:00,61.0,46.0,30.17,WNW,292,1.0,4.0,58,0.00,,,0.00,,2013-09-06 19:52:00,
2013-09-06 16:12:00,62.0,47.0,30.17,SW,227,1.0,4.0,59,0.00,,,0.00,,2013-09-06 20:12:00,
2013-09-06 16:23:00,62.0,47.0,30.16,West,278,1.0,4.0,57,0.00,,,0.00,,2013-09-06 20:23:00,
2013-09-06 16:42:00,62.0,47.0,30.16,SW,233,1.0,4.0,58,0.00,,,0.00,,2013-09-06 20:42:00,
2013-09-06 16:52:00,63.0,47.0,30.15,NW,306,1.0,4.0,55,0.00,,,0.00,,2013-09-06 20:52:00,
2013-09-06 17:12:00,63.0,45.0,30.15,WNW,287,2.0,6.0,51,0.00,,,0.00,,2013-09-06 21:12:00,
2013-09-06 17:22:00,62.0,46.0,30.15,WNW,282,0.0,3.0,56,0.00,,,0.00,,2013-09-06 21:22:00,
2013-09-06 17:54:00,63.0,48.0,30.14,West,279,0.0,3.0,57,0.00,,,0.00,,2013-09-06 21:54:00,
2013-09-06 18:13:00,61.0,45.0,30.14,West,273,1.0,6.0,55,0.00,,,0.00,,2013-09-06 22:13:00,
2013-09-06 18:23:00,61.0,48.0,30.14,West,281,0.0,1.0,63,0.00,,,0.00,,2013-09-06 22:23:00,
2013-09-06 18:54:00,59.0,49.0,30.14,West,281,0.0,0.0,69,0.00,,,0.00,,2013-09-06 22:54:00,
2013-09-06 19:13:00,57.0,48.0,30.14,West,281,0.0,0.0,72,0.00,,,0.00,,2013-09-06 23:13:00,
2013-09-06 19:23:00,56.0,47.0,30.14,West,280,0.0,0.0,73,0.00,,,0.00,,2013-09-06 23:23:00,
2013-09-06 19:52:00,55.0,47.0,30.13,West,280,0.0,0.0,73,0.00,,,0.00,,2013-09-06 23:52:00,
2013-09-06 20:12:00,55.0,48.0,30.14,West,280,0.0,2.0,76,0.00,,,0.00,,2013-09-07 00:12:00,
2013-09-06 20:22:00,55.0,48.0,30.14,West,281,1.0,3.0,76,0.00,,,0.00,,2013-09-07 00:22:00,
2013-09-06 20:42:00,55.0,48.0,30.14,West,280,0.0,3.0,78,0.00,,,0.00,,2013-09-07 00:42:00,
2013-09-06 20:52:00,54.0,48.0,30.14,West,281,1.0,2.0,81,0.00,,,0.00,,2013-09-07 00:52:00,
2013-09-06 21:12:00,53.0,48.0,30.14,West,280,1.0,2.0,82,0.00,,,0.00,,2013-09-07 01:12:00,
2013-09-06 21:22:00,53.0,48.0,30.14,West,280,1.0,2.0,84,0.00,,,0.00,,2013-09-07 01:22:00,
2013-09-06 21:42:00,52.0,48.0,30.14,West,280,1.0,2.0,86,0.00,,,0.00,,2013-09-07 01:42:00,
2013-09-06 21:54:00,52.0,48.0,30.13,West,280,1.0,3.0,86,0.00,,,0.00,,2013-09-07 01:54:00,
2013-09-06 22:12:00,51.0,47.0,30.12,West,280,0.0,2.0,87,0.00,,,0.00,,2013-09-07 02:12:00,
2013-09-06 22:23:00,51.0,48.0,30.13,West,281,1.0,3.0,89,0.00,,,0.00,,2013-09-07 02:23:00,
2013-09-06 22:43:00,51.0,48.0,30.13,West,280,1.0,3.0,88,0.00,,,0.00,,2013-09-07 02:43:00,
2013-09-06 22:52:00,51.0,48.0,30.13,West,281,0.0,2.0,89,0.00,,,0.00,,2013-09-07 02:52:00,
2013-09-06 23:12:00,51.0,48.0,30.13,West,281,1.0,3.0,89,0.00,,,0.00,,2013-09-07 03:12:00,
2013-09-06 23:23:00,50.0,47.0,30.12,West,281,0.0,2.0,90,0.00,,,0.00,,2013-09-07 03:23:00,
2013-09-06 23:55:00,50.0,47.0,30.11,West,280,1.0,3.0,89,0.00,,,0.00,,2013-09-07 03:55:00,